sensor_id;sensor_type;location;lat;lon;timestamp;pressure;altitude;pressure_sealevel;temperature;humidity
34674;BME280;20879;55.668;37.858;2022-08-19T00:02:06;100385.19;;;20.54;57.42
34674;BME280;20879;55.668;37.858;2022-08-19T00:04:35;100406.22;;;20.54;57.37
34674;BME280;20879;55.668;37.858;2022-08-19T00:07:05;100388.28;;;20.43;57.44
34674;BME280;20879;55.668;37.858;2022-08-19T00:09:37;100400.47;;;20.46;58.00
34674;BME280;20879;55.668;37.858;2022-08-19T00:12:07;100404.06;;;20.43;57.63
34674;BME280;20879;55.668;37.858;2022-08-19T00:14:37;100396.41;;;20.39;57.69
34674;BME280;20879;55.668;37.858;2022-08-19T00:17:08;100414.03;;;20.37;57.77
34674;BME280;20879;55.668;37.858;2022-08-19T00:19:37;100417.19;;;20.24;57.96
34674;BME280;20879;55.668;37.858;2022-08-19T00:22:07;100423.44;;;20.22;58.06
34674;BME280;20879;55.668;37.858;2022-08-19T00:24:38;100410.25;;;20.03;58.15
34674;BME280;20879;55.668;37.858;2022-08-19T00:27:17;100419.31;;;20.16;58.16
34674;BME280;20879;55.668;37.858;2022-08-19T00:29:53;100428.91;;;20.17;57.87
34674;BME280;20879;55.668;37.858;2022-08-19T00:32:22;100406.34;;;20.12;57.81
34674;BME280;20879;55.668;37.858;2022-08-19T00:34:53;100417.53;;;20.17;58.00
34674;BME280;20879;55.668;37.858;2022-08-19T00:37:23;100422.66;;;20.20;57.43
34674;BME280;20879;55.668;37.858;2022-08-19T00:39:55;100409.59;;;20.18;57.58
34674;BME280;20879;55.668;37.858;2022-08-19T00:42:24;100427.16;;;20.18;57.49
34674;BME280;20879;55.668;37.858;2022-08-19T00:44:54;100421.97;;;20.16;57.42
34674;BME280;20879;55.668;37.858;2022-08-19T00:47:24;100434.44;;;20.11;57.54
34674;BME280;20879;55.668;37.858;2022-08-19T00:49:56;100441.53;;;20.09;57.31
34674;BME280;20879;55.668;37.858;2022-08-19T00:52:28;100441.47;;;20.11;57.72
34674;BME280;20879;55.668;37.858;2022-08-19T00:55:01;100439.97;;;20.05;57.52
34674;BME280;20879;55.668;37.858;2022-08-19T00:57:35;100456.84;;;19.99;57.78
34674;BME280;20879;55.668;37.858;2022-08-19T01:00:09;100452.06;;;19.88;58.25
34674;BME280;20879;55.668;37.858;2022-08-19T01:02:40;100464.53;;;19.83;58.27
34674;BME280;20879;55.668;37.858;2022-08-19T01:05:13;100446.25;;;19.80;58.55
34674;BME280;20879;55.668;37.858;2022-08-19T01:07:45;100452.53;;;19.76;58.38
34674;BME280;20879;55.668;37.858;2022-08-19T01:10:20;100455.28;;;19.73;58.77
34674;BME280;20879;55.668;37.858;2022-08-19T01:12:52;100464.31;;;19.66;58.54
34674;BME280;20879;55.668;37.858;2022-08-19T01:15:25;100455.53;;;19.67;58.50
34674;BME280;20879;55.668;37.858;2022-08-19T01:17:57;100461.16;;;19.58;59.10
34674;BME280;20879;55.668;37.858;2022-08-19T01:20:28;100454.22;;;19.56;58.80
34674;BME280;20879;55.668;37.858;2022-08-19T01:23:00;100459.41;;;19.58;58.53
34674;BME280;20879;55.668;37.858;2022-08-19T01:25:32;100449.72;;;19.59;58.83
34674;BME280;20879;55.668;37.858;2022-08-19T01:28:05;100460.56;;;19.51;58.64
34674;BME280;20879;55.668;37.858;2022-08-19T01:30:37;100470.88;;;19.55;58.74
34674;BME280;20879;55.668;37.858;2022-08-19T01:33:10;100468.38;;;19.52;58.64
34674;BME280;20879;55.668;37.858;2022-08-19T01:35:40;100441.69;;;19.41;58.88
34674;BME280;20879;55.668;37.858;2022-08-19T01:38:21;100463.38;;;19.46;58.89
34674;BME280;20879;55.668;37.858;2022-08-19T01:40:51;100459.16;;;19.42;59.23
34674;BME280;20879;55.668;37.858;2022-08-19T01:43:20;100451.28;;;19.42;59.42
34674;BME280;20879;55.668;37.858;2022-08-19T01:45:51;100431.69;;;19.29;58.98
34674;BME280;20879;55.668;37.858;2022-08-19T01:48:20;100447.91;;;19.38;59.18
34674;BME280;20879;55.668;37.858;2022-08-19T01:50:50;100430.41;;;19.39;59.28
34674;BME280;20879;55.668;37.858;2022-08-19T01:53:22;100428.56;;;19.41;58.83
34674;BME280;20879;55.668;37.858;2022-08-19T01:55:57;100441.56;;;19.44;58.47
34674;BME280;20879;55.668;37.858;2022-08-19T01:58:29;100441.44;;;19.47;58.68
34674;BME280;20879;55.668;37.858;2022-08-19T02:01:04;100463.13;;;19.52;58.51
34674;BME280;20879;55.668;37.858;2022-08-19T02:03:33;100460.75;;;19.46;58.47
34674;BME280;20879;55.668;37.858;2022-08-19T02:06:04;100452.25;;;19.39;58.51
34674;BME280;20879;55.668;37.858;2022-08-19T02:08:38;100464.72;;;19.34;58.86
34674;BME280;20879;55.668;37.858;2022-08-19T02:11:07;100447.38;;;19.30;59.18
34674;BME280;20879;55.668;37.858;2022-08-19T02:13:37;100459.53;;;19.33;59.49
34674;BME280;20879;55.668;37.858;2022-08-19T02:16:06;100453.78;;;19.23;59.24
34674;BME280;20879;55.668;37.858;2022-08-19T02:18:35;100464.34;;;19.21;59.63
34674;BME280;20879;55.668;37.858;2022-08-19T02:21:04;100449.38;;;19.24;59.83
34674;BME280;20879;55.668;37.858;2022-08-19T02:23:35;100458.25;;;19.21;59.58
34674;BME280;20879;55.668;37.858;2022-08-19T02:26:05;100455.78;;;19.16;59.67
34674;BME280;20879;55.668;37.858;2022-08-19T02:28:35;100462.75;;;19.17;59.79
34674;BME280;20879;55.668;37.858;2022-08-19T02:31:12;100462.63;;;19.20;60.24
34674;BME280;20879;55.668;37.858;2022-08-19T02:33:43;100457.75;;;19.11;59.86
34674;BME280;20879;55.668;37.858;2022-08-19T02:36:15;100474.97;;;19.18;59.99
34674;BME280;20879;55.668;37.858;2022-08-19T02:38:50;100463.13;;;19.08;59.65
34674;BME280;20879;55.668;37.858;2022-08-19T02:41:23;100468.31;;;19.10;60.27
34674;BME280;20879;55.668;37.858;2022-08-19T02:43:54;100485.47;;;19.18;59.92
34674;BME280;20879;55.668;37.858;2022-08-19T02:46:46;100470.81;;;19.13;60.01
34674;BME280;20879;55.668;37.858;2022-08-19T02:49:18;100478.50;;;19.17;59.95
34674;BME280;20879;55.668;37.858;2022-08-19T02:51:48;100470.06;;;19.09;60.09
34674;BME280;20879;55.668;37.858;2022-08-19T02:54:19;100495.03;;;19.19;59.75
34674;BME280;20879;55.668;37.858;2022-08-19T02:56:48;100456.22;;;19.28;59.28
34674;BME280;20879;55.668;37.858;2022-08-19T02:59:18;100487.59;;;19.09;60.26
34674;BME280;20879;55.668;37.858;2022-08-19T03:01:49;100489.31;;;19.10;60.32
34674;BME280;20879;55.668;37.858;2022-08-19T03:04:19;100474.75;;;19.01;60.66
34674;BME280;20879;55.668;37.858;2022-08-19T03:06:50;100487.66;;;19.07;60.69
34674;BME280;20879;55.668;37.858;2022-08-19T03:09:21;100481.88;;;18.97;60.51
34674;BME280;20879;55.668;37.858;2022-08-19T03:11:50;100487.16;;;19.19;60.03
34674;BME280;20879;55.668;37.858;2022-08-19T03:14:20;100489.97;;;19.15;60.75
34674;BME280;20879;55.668;37.858;2022-08-19T03:16:51;100473.94;;;18.99;60.68
34674;BME280;20879;55.668;37.858;2022-08-19T03:19:21;100498.16;;;19.07;60.97
34674;BME280;20879;55.668;37.858;2022-08-19T03:21:50;100499.81;;;19.10;60.79
34674;BME280;20879;55.668;37.858;2022-08-19T03:24:23;100508.47;;;19.12;61.06
34674;BME280;20879;55.668;37.858;2022-08-19T03:26:54;100496.38;;;19.08;61.35
34674;BME280;20879;55.668;37.858;2022-08-19T03:29:26;100496.09;;;19.15;61.03
34674;BME280;20879;55.668;37.858;2022-08-19T03:31:58;100510.97;;;19.15;60.49
34674;BME280;20879;55.668;37.858;2022-08-19T03:34:33;100498.66;;;19.17;60.69
34674;BME280;20879;55.668;37.858;2022-08-19T03:37:03;100492.06;;;19.29;60.29
34674;BME280;20879;55.668;37.858;2022-08-19T03:39:36;100492.53;;;19.16;61.28
34674;BME280;20879;55.668;37.858;2022-08-19T03:42:06;100489.19;;;19.13;61.07
34674;BME280;20879;55.668;37.858;2022-08-19T03:44:55;100470.38;;;19.24;60.71
34674;BME280;20879;55.668;37.858;2022-08-19T03:47:26;100478.13;;;19.27;60.54
34674;BME280;20879;55.668;37.858;2022-08-19T03:49:57;100494.47;;;19.35;60.33
34674;BME280;20879;55.668;37.858;2022-08-19T03:52:26;100485.53;;;19.39;60.66
34674;BME280;20879;55.668;37.858;2022-08-19T03:54:57;100494.91;;;19.46;60.31
34674;BME280;20879;55.668;37.858;2022-08-19T03:57:29;100482.91;;;19.39;60.31
34674;BME280;20879;55.668;37.858;2022-08-19T03:59:59;100482.59;;;19.47;59.82
34674;BME280;20879;55.668;37.858;2022-08-19T04:02:39;100502.19;;;19.60;60.45
34674;BME280;20879;55.668;37.858;2022-08-19T04:05:27;100495.84;;;19.66;59.98
34674;BME280;20879;55.668;37.858;2022-08-19T04:07:57;100510.53;;;19.94;59.02
34674;BME280;20879;55.668;37.858;2022-08-19T04:10:29;100502.31;;;20.01;59.11
34674;BME280;20879;55.668;37.858;2022-08-19T04:12:58;100496.22;;;20.01;59.17
34674;BME280;20879;55.668;37.858;2022-08-19T04:15:28;100504.38;;;20.15;58.42
34674;BME280;20879;55.668;37.858;2022-08-19T04:18:00;100502.91;;;20.29;58.38
34674;BME280;20879;55.668;37.858;2022-08-19T04:20:29;100501.47;;;20.42;57.99
34674;BME280;20879;55.668;37.858;2022-08-19T04:22:59;100500.78;;;20.57;57.27
34674;BME280;20879;55.668;37.858;2022-08-19T04:25:35;100512.50;;;20.71;57.58
34674;BME280;20879;55.668;37.858;2022-08-19T04:28:05;100506.63;;;20.85;56.62
34674;BME280;20879;55.668;37.858;2022-08-19T04:30:39;100512.53;;;21.09;56.07
34674;BME280;20879;55.668;37.858;2022-08-19T04:33:09;100510.19;;;21.22;55.92
34674;BME280;20879;55.668;37.858;2022-08-19T04:35:40;100497.56;;;21.28;55.52
34674;BME280;20879;55.668;37.858;2022-08-19T04:38:11;100506.06;;;21.54;54.41
34674;BME280;20879;55.668;37.858;2022-08-19T04:40:45;100514.16;;;21.69;54.07
34674;BME280;20879;55.668;37.858;2022-08-19T04:43:28;100512.38;;;21.50;54.85
34674;BME280;20879;55.668;37.858;2022-08-19T04:45:58;100511.94;;;21.40;55.22
34674;BME280;20879;55.668;37.858;2022-08-19T04:48:28;100509.53;;;21.36;55.34
34674;BME280;20879;55.668;37.858;2022-08-19T04:51:01;100507.41;;;21.25;55.94
34674;BME280;20879;55.668;37.858;2022-08-19T04:53:36;100500.59;;;21.21;55.83
34674;BME280;20879;55.668;37.858;2022-08-19T04:56:09;100496.09;;;21.23;55.78
34674;BME280;20879;55.668;37.858;2022-08-19T04:58:40;100501.09;;;21.29;55.65
34674;BME280;20879;55.668;37.858;2022-08-19T05:01:14;100501.28;;;21.24;55.30
34674;BME280;20879;55.668;37.858;2022-08-19T05:03:46;100499.81;;;21.19;55.46
34674;BME280;20879;55.668;37.858;2022-08-19T05:06:17;100498.72;;;21.23;55.93
34674;BME280;20879;55.668;37.858;2022-08-19T05:08:47;100496.16;;;21.21;55.90
34674;BME280;20879;55.668;37.858;2022-08-19T05:11:21;100495.16;;;21.24;56.01
34674;BME280;20879;55.668;37.858;2022-08-19T05:13:53;100495.81;;;21.29;55.48
34674;BME280;20879;55.668;37.858;2022-08-19T05:16:23;100492.31;;;21.28;55.83
34674;BME280;20879;55.668;37.858;2022-08-19T05:18:53;100476.78;;;21.41;54.91
34674;BME280;20879;55.668;37.858;2022-08-19T05:21:36;100497.47;;;21.49;55.05
34674;BME280;20879;55.668;37.858;2022-08-19T05:24:20;100499.72;;;21.58;54.99
34674;BME280;20879;55.668;37.858;2022-08-19T05:26:53;100501.25;;;21.62;54.65
34674;BME280;20879;55.668;37.858;2022-08-19T05:29:24;100504.53;;;21.68;54.04
34674;BME280;20879;55.668;37.858;2022-08-19T05:32:04;100497.41;;;21.87;53.91
34674;BME280;20879;55.668;37.858;2022-08-19T05:34:35;100486.78;;;22.06;53.03
34674;BME280;20879;55.668;37.858;2022-08-19T05:37:05;100502.84;;;22.19;53.39
34674;BME280;20879;55.668;37.858;2022-08-19T05:39:36;100493.31;;;22.34;52.90
34674;BME280;20879;55.668;37.858;2022-08-19T05:42:10;100489.00;;;22.33;52.80
34674;BME280;20879;55.668;37.858;2022-08-19T05:44:42;100495.06;;;22.51;52.70
34674;BME280;20879;55.668;37.858;2022-08-19T05:47:14;100488.13;;;22.66;52.61
34674;BME280;20879;55.668;37.858;2022-08-19T05:49:46;100488.69;;;22.89;51.96
34674;BME280;20879;55.668;37.858;2022-08-19T05:52:19;100468.06;;;22.95;51.78
34674;BME280;20879;55.668;37.858;2022-08-19T05:54:53;100488.69;;;23.04;51.32
34674;BME280;20879;55.668;37.858;2022-08-19T05:57:25;100494.53;;;23.11;50.69
34674;BME280;20879;55.668;37.858;2022-08-19T05:59:55;100485.41;;;23.17;50.97
34674;BME280;20879;55.668;37.858;2022-08-19T06:02:28;100496.72;;;23.35;50.27
34674;BME280;20879;55.668;37.858;2022-08-19T06:04:58;100519.66;;;23.50;50.00
34674;BME280;20879;55.668;37.858;2022-08-19T06:07:29;100497.88;;;23.61;50.00
34674;BME280;20879;55.668;37.858;2022-08-19T06:09:58;100484.94;;;23.56;49.90
34674;BME280;20879;55.668;37.858;2022-08-19T06:12:32;100486.31;;;23.48;49.87
34674;BME280;20879;55.668;37.858;2022-08-19T06:15:05;100505.47;;;23.51;50.22
34674;BME280;20879;55.668;37.858;2022-08-19T06:17:35;100482.56;;;23.52;49.70
34674;BME280;20879;55.668;37.858;2022-08-19T06:20:06;100481.75;;;23.35;50.47
34674;BME280;20879;55.668;37.858;2022-08-19T06:22:38;100515.22;;;23.35;49.99
34674;BME280;20879;55.668;37.858;2022-08-19T06:25:12;100511.91;;;23.31;50.44
34674;BME280;20879;55.668;37.858;2022-08-19T06:27:45;100512.13;;;23.43;50.41
34674;BME280;20879;55.668;37.858;2022-08-19T06:30:35;100524.31;;;23.61;49.50
34674;BME280;20879;55.668;37.858;2022-08-19T06:33:04;100501.16;;;23.50;49.74
34674;BME280;20879;55.668;37.858;2022-08-19T06:35:38;100508.06;;;23.37;49.65
34674;BME280;20879;55.668;37.858;2022-08-19T06:38:08;100485.75;;;23.27;50.25
34674;BME280;20879;55.668;37.858;2022-08-19T06:40:40;100492.97;;;23.23;50.39
34674;BME280;20879;55.668;37.858;2022-08-19T06:43:12;100504.16;;;23.28;50.30
34674;BME280;20879;55.668;37.858;2022-08-19T06:45:44;100487.16;;;23.32;50.07
34674;BME280;20879;55.668;37.858;2022-08-19T06:48:14;100517.78;;;23.36;50.14
34674;BME280;20879;55.668;37.858;2022-08-19T06:50:44;100507.47;;;23.48;50.02
34674;BME280;20879;55.668;37.858;2022-08-19T06:53:14;100488.16;;;23.62;49.63
34674;BME280;20879;55.668;37.858;2022-08-19T06:55:44;100492.25;;;23.67;49.05
34674;BME280;20879;55.668;37.858;2022-08-19T06:58:16;100514.94;;;23.71;49.09
34674;BME280;20879;55.668;37.858;2022-08-19T07:00:45;100511.59;;;23.84;48.99
34674;BME280;20879;55.668;37.858;2022-08-19T07:03:15;100514.28;;;23.98;48.30
34674;BME280;20879;55.668;37.858;2022-08-19T07:05:46;100520.34;;;24.00;48.06
34674;BME280;20879;55.668;37.858;2022-08-19T07:08:15;100513.22;;;24.17;48.34
34674;BME280;20879;55.668;37.858;2022-08-19T07:10:45;100511.16;;;24.36;46.95
34674;BME280;20879;55.668;37.858;2022-08-19T07:13:17;100505.44;;;24.58;46.84
34674;BME280;20879;55.668;37.858;2022-08-19T07:15:48;100509.84;;;24.58;46.28
34674;BME280;20879;55.668;37.858;2022-08-19T07:18:18;100517.44;;;24.50;45.92
34674;BME280;20879;55.668;37.858;2022-08-19T07:20:48;100515.00;;;24.61;45.90
34674;BME280;20879;55.668;37.858;2022-08-19T07:23:18;100516.31;;;24.68;46.19
34674;BME280;20879;55.668;37.858;2022-08-19T07:25:49;100499.88;;;24.77;45.96
34674;BME280;20879;55.668;37.858;2022-08-19T07:28:22;100525.22;;;24.67;45.72
34674;BME280;20879;55.668;37.858;2022-08-19T07:30:53;100513.81;;;24.51;46.17
34674;BME280;20879;55.668;37.858;2022-08-19T07:33:23;100522.19;;;24.59;45.81
34674;BME280;20879;55.668;37.858;2022-08-19T07:35:54;100528.03;;;24.64;45.55
34674;BME280;20879;55.668;37.858;2022-08-19T07:38:23;100527.19;;;24.64;45.52
34674;BME280;20879;55.668;37.858;2022-08-19T07:40:53;100530.13;;;24.73;45.57
34674;BME280;20879;55.668;37.858;2022-08-19T07:43:24;100503.66;;;24.88;45.36
34674;BME280;20879;55.668;37.858;2022-08-19T07:46:01;100514.78;;;24.93;45.30
34674;BME280;20879;55.668;37.858;2022-08-19T07:48:30;100514.06;;;24.91;45.40
34674;BME280;20879;55.668;37.858;2022-08-19T07:51:02;100516.91;;;24.88;45.43
34674;BME280;20879;55.668;37.858;2022-08-19T07:53:32;100517.84;;;24.87;45.72
34674;BME280;20879;55.668;37.858;2022-08-19T07:56:06;100522.56;;;24.82;45.67
34674;BME280;20879;55.668;37.858;2022-08-19T07:58:40;100529.66;;;24.95;45.48
34674;BME280;20879;55.668;37.858;2022-08-19T08:01:12;100518.84;;;25.13;45.29
34674;BME280;20879;55.668;37.858;2022-08-19T08:03:42;100517.72;;;25.17;44.92
34674;BME280;20879;55.668;37.858;2022-08-19T08:06:25;100533.72;;;25.16;45.35
34674;BME280;20879;55.668;37.858;2022-08-19T08:09:08;100500.09;;;25.16;44.51
34674;BME280;20879;55.668;37.858;2022-08-19T08:11:47;100517.81;;;25.16;44.83
34674;BME280;20879;55.668;37.858;2022-08-19T08:14:22;100504.56;;;25.16;44.51
34674;BME280;20879;55.668;37.858;2022-08-19T08:17:01;100535.28;;;25.18;44.27
34674;BME280;20879;55.668;37.858;2022-08-19T08:19:37;100526.50;;;25.32;43.37
34674;BME280;20879;55.668;37.858;2022-08-19T08:22:08;100528.00;;;25.63;42.52
34674;BME280;20879;55.668;37.858;2022-08-19T08:25:01;100537.25;;;25.98;42.25
34674;BME280;20879;55.668;37.858;2022-08-19T08:27:35;100515.94;;;25.99;40.83
34674;BME280;20879;55.668;37.858;2022-08-19T08:30:09;100515.41;;;25.67;41.27
34674;BME280;20879;55.668;37.858;2022-08-19T08:32:40;100510.31;;;25.64;41.46
34674;BME280;20879;55.668;37.858;2022-08-19T08:35:13;100512.25;;;25.47;41.59
34674;BME280;20879;55.668;37.858;2022-08-19T08:37:44;100513.34;;;25.31;41.75
34674;BME280;20879;55.668;37.858;2022-08-19T08:40:19;100526.66;;;25.29;42.32
34674;BME280;20879;55.668;37.858;2022-08-19T08:42:55;100530.09;;;25.31;42.35
34674;BME280;20879;55.668;37.858;2022-08-19T08:45:51;100523.00;;;25.59;42.17
34674;BME280;20879;55.668;37.858;2022-08-19T08:48:26;100518.59;;;25.72;41.59
34674;BME280;20879;55.668;37.858;2022-08-19T08:51:03;100526.50;;;25.59;42.15
34674;BME280;20879;55.668;37.858;2022-08-19T08:53:36;100511.31;;;25.49;42.57
34674;BME280;20879;55.668;37.858;2022-08-19T08:56:09;100498.66;;;25.25;42.58
34674;BME280;20879;55.668;37.858;2022-08-19T08:58:48;100474.75;;;25.12;42.91
34674;BME280;20879;55.668;37.858;2022-08-19T09:01:23;100505.78;;;25.10;43.04
34674;BME280;20879;55.668;37.858;2022-08-19T09:03:57;100494.69;;;25.32;43.12
34674;BME280;20879;55.668;37.858;2022-08-19T09:06:37;100512.34;;;25.46;42.66
34674;BME280;20879;55.668;37.858;2022-08-19T09:09:14;100512.34;;;25.46;43.04
34674;BME280;20879;55.668;37.858;2022-08-19T09:11:55;100536.06;;;25.62;42.59
34674;BME280;20879;55.668;37.858;2022-08-19T09:14:35;100520.34;;;25.86;42.45
34674;BME280;20879;55.668;37.858;2022-08-19T09:17:28;100537.16;;;25.99;40.13
34674;BME280;20879;55.668;37.858;2022-08-19T09:20:05;100524.19;;;25.95;39.28
34674;BME280;20879;55.668;37.858;2022-08-19T09:22:37;100535.03;;;26.05;38.19
34674;BME280;20879;55.668;37.858;2022-08-19T09:25:11;100523.59;;;26.04;37.68
34674;BME280;20879;55.668;37.858;2022-08-19T09:27:42;100520.44;;;25.97;37.39
34674;BME280;20879;55.668;37.858;2022-08-19T09:30:14;100490.91;;;25.76;38.29
34674;BME280;20879;55.668;37.858;2022-08-19T09:32:46;100555.97;;;25.55;37.98
34674;BME280;20879;55.668;37.858;2022-08-19T09:35:19;100533.13;;;25.39;37.89
34674;BME280;20879;55.668;37.858;2022-08-19T09:37:51;100523.22;;;25.56;38.26
34674;BME280;20879;55.668;37.858;2022-08-19T09:40:26;100522.38;;;25.68;37.33
34674;BME280;20879;55.668;37.858;2022-08-19T09:42:57;100473.50;;;25.72;36.59
34674;BME280;20879;55.668;37.858;2022-08-19T09:45:37;100467.59;;;25.41;36.06
34674;BME280;20879;55.668;37.858;2022-08-19T09:48:08;100553.91;;;25.45;35.12
34674;BME280;20879;55.668;37.858;2022-08-19T09:50:45;100575.81;;;25.35;34.10
34674;BME280;20879;55.668;37.858;2022-08-19T09:53:18;100539.84;;;25.31;33.02
34674;BME280;20879;55.668;37.858;2022-08-19T09:55:52;100544.25;;;25.30;32.96
34674;BME280;20879;55.668;37.858;2022-08-19T09:58:21;100532.34;;;25.37;32.68
34674;BME280;20879;55.668;37.858;2022-08-19T10:00:54;100534.16;;;25.37;32.44
34674;BME280;20879;55.668;37.858;2022-08-19T10:03:27;100530.66;;;25.36;31.94
34674;BME280;20879;55.668;37.858;2022-08-19T10:05:59;100535.41;;;25.31;31.43
34674;BME280;20879;55.668;37.858;2022-08-19T10:08:28;100487.44;;;25.49;29.55
34674;BME280;20879;55.668;37.858;2022-08-19T10:11:00;100555.25;;;25.38;30.13
34674;BME280;20879;55.668;37.858;2022-08-19T10:13:50;100588.47;;;25.29;30.29
34674;BME280;20879;55.668;37.858;2022-08-19T10:16:22;100553.94;;;25.31;30.23
34674;BME280;20879;55.668;37.858;2022-08-19T10:18:58;100536.69;;;25.38;30.10
34674;BME280;20879;55.668;37.858;2022-08-19T10:21:33;100581.75;;;25.53;29.75
34674;BME280;20879;55.668;37.858;2022-08-19T10:24:05;100544.63;;;25.53;29.49
34674;BME280;20879;55.668;37.858;2022-08-19T10:26:38;100505.38;;;25.45;29.10
34674;BME280;20879;55.668;37.858;2022-08-19T10:29:08;100571.75;;;25.43;29.54
34674;BME280;20879;55.668;37.858;2022-08-19T10:31:38;100573.50;;;25.43;30.09
34674;BME280;20879;55.668;37.858;2022-08-19T10:34:30;100553.28;;;25.42;29.65
34674;BME280;20879;55.668;37.858;2022-08-19T10:37:00;100587.53;;;25.45;30.03
34674;BME280;20879;55.668;37.858;2022-08-19T10:39:30;100577.31;;;25.39;30.43
34674;BME280;20879;55.668;37.858;2022-08-19T10:42:09;100598.25;;;25.43;30.91
34674;BME280;20879;55.668;37.858;2022-08-19T10:44:39;100568.38;;;25.54;29.76
34674;BME280;20879;55.668;37.858;2022-08-19T10:47:09;100508.81;;;25.60;29.85
34674;BME280;20879;55.668;37.858;2022-08-19T10:49:55;100573.94;;;25.64;30.42
34674;BME280;20879;55.668;37.858;2022-08-19T10:52:41;100568.88;;;25.74;30.54
34674;BME280;20879;55.668;37.858;2022-08-19T10:55:18;100578.09;;;25.68;30.44
34674;BME280;20879;55.668;37.858;2022-08-19T10:58:02;100537.88;;;25.61;30.79
34674;BME280;20879;55.668;37.858;2022-08-19T11:00:31;100570.84;;;25.57;30.57
34674;BME280;20879;55.668;37.858;2022-08-19T11:03:00;100540.47;;;25.49;29.55
34674;BME280;20879;55.668;37.858;2022-08-19T11:05:31;100552.94;;;25.61;29.16
34674;BME280;20879;55.668;37.858;2022-08-19T11:08:06;100553.56;;;25.64;29.71
34674;BME280;20879;55.668;37.858;2022-08-19T11:10:51;100541.72;;;25.70;29.62
34674;BME280;20879;55.668;37.858;2022-08-19T11:13:26;100513.94;;;25.76;29.86
34674;BME280;20879;55.668;37.858;2022-08-19T11:16:00;100536.38;;;25.85;30.01
34674;BME280;20879;55.668;37.858;2022-08-19T11:18:35;100548.97;;;25.81;29.19
34674;BME280;20879;55.668;37.858;2022-08-19T11:21:09;100480.56;;;25.86;29.54
34674;BME280;20879;55.668;37.858;2022-08-19T11:23:39;100568.88;;;25.74;29.81
34674;BME280;20879;55.668;37.858;2022-08-19T11:26:08;100569.66;;;25.76;30.53
34674;BME280;20879;55.668;37.858;2022-08-19T11:28:38;100530.91;;;25.73;30.79
34674;BME280;20879;55.668;37.858;2022-08-19T11:31:10;100553.06;;;25.72;31.63
34674;BME280;20879;55.668;37.858;2022-08-19T11:33:40;100555.31;;;25.78;31.51
34674;BME280;20879;55.668;37.858;2022-08-19T11:36:16;100528.19;;;25.88;31.32
34674;BME280;20879;55.668;37.858;2022-08-19T11:38:47;100552.28;;;25.85;31.57
34674;BME280;20879;55.668;37.858;2022-08-19T11:41:18;100535.28;;;25.87;32.87
34674;BME280;20879;55.668;37.858;2022-08-19T11:43:50;100578.28;;;25.92;32.79
34674;BME280;20879;55.668;37.858;2022-08-19T11:46:21;100548.91;;;25.95;33.27
34674;BME280;20879;55.668;37.858;2022-08-19T11:48:51;100523.84;;;25.87;33.40
34674;BME280;20879;55.668;37.858;2022-08-19T11:51:24;100544.94;;;25.88;33.83
34674;BME280;20879;55.668;37.858;2022-08-19T11:53:54;100534.34;;;25.88;33.73
34674;BME280;20879;55.668;37.858;2022-08-19T11:56:25;100543.31;;;26.00;33.56
34674;BME280;20879;55.668;37.858;2022-08-19T11:58:55;100552.28;;;25.85;33.83
34674;BME280;20879;55.668;37.858;2022-08-19T12:01:26;100474.72;;;25.94;34.54
34674;BME280;20879;55.668;37.858;2022-08-19T12:03:56;100550.47;;;25.85;34.70
34674;BME280;20879;55.668;37.858;2022-08-19T12:06:30;100536.31;;;25.99;34.90
34674;BME280;20879;55.668;37.858;2022-08-19T12:09:03;100541.13;;;26.07;34.56
34674;BME280;20879;55.668;37.858;2022-08-19T12:11:34;100540.16;;;26.21;34.99
34674;BME280;20879;55.668;37.858;2022-08-19T12:14:04;100515.47;;;26.33;34.96
34674;BME280;20879;55.668;37.858;2022-08-19T12:16:33;100535.09;;;26.30;34.80
34674;BME280;20879;55.668;37.858;2022-08-19T12:19:11;100536.25;;;26.26;35.49
34674;BME280;20879;55.668;37.858;2022-08-19T12:21:50;100534.66;;;26.24;34.81
34674;BME280;20879;55.668;37.858;2022-08-19T12:24:22;100503.16;;;25.92;35.19
34674;BME280;20879;55.668;37.858;2022-08-19T12:26:51;100530.19;;;26.11;35.04
34674;BME280;20879;55.668;37.858;2022-08-19T12:29:27;100554.41;;;26.20;35.07
34674;BME280;20879;55.668;37.858;2022-08-19T12:31:57;100539.44;;;26.19;35.33
34674;BME280;20879;55.668;37.858;2022-08-19T12:34:32;100560.78;;;26.17;35.23
34674;BME280;20879;55.668;37.858;2022-08-19T12:37:04;100573.94;;;26.19;35.37
34674;BME280;20879;55.668;37.858;2022-08-19T12:39:36;100550.91;;;26.32;34.77
34674;BME280;20879;55.668;37.858;2022-08-19T12:42:06;100563.34;;;26.44;34.49
34674;BME280;20879;55.668;37.858;2022-08-19T12:44:36;100559.81;;;26.31;34.80
34674;BME280;20879;55.668;37.858;2022-08-19T12:47:09;100556.31;;;26.30;35.02
34674;BME280;20879;55.668;37.858;2022-08-19T12:49:39;100471.25;;;26.19;35.10
34674;BME280;20879;55.668;37.858;2022-08-19T12:57:20;100534.41;;;26.01;35.15
34674;BME280;20879;55.668;37.858;2022-08-19T13:00:00;100546.09;;;26.11;35.37
34674;BME280;20879;55.668;37.858;2022-08-19T13:02:32;100533.69;;;26.25;35.66
34674;BME280;20879;55.668;37.858;2022-08-19T13:05:08;100569.44;;;26.06;35.80
34674;BME280;20879;55.668;37.858;2022-08-19T13:07:38;100539.84;;;26.12;35.95
34674;BME280;20879;55.668;37.858;2022-08-19T13:10:11;100556.53;;;26.27;35.44
34674;BME280;20879;55.668;37.858;2022-08-19T13:12:44;100551.84;;;26.31;35.67
34674;BME280;20879;55.668;37.858;2022-08-19T13:15:15;100512.88;;;26.44;35.02